Pagrindinis puslapis
METAR-TAF:

METAR-TAF

Oro uostai :

Vyner Noištatas, Austrija

platuma: 47-50-36N, ilguma: 016-15-29E, Aukštis: 272 m

Dabartinis oras

Ataskaita buvo paskelbta 58 minutes, ne 11:00 UTC
Vėjas 13 kt iš Pietų/Pietryčių
Temperatūra
Slėgis
Mažai debesys ne aukštis 30000 ft

METAR: LOAN 211100Z 15013KT 45KM FEW300

Laikas: 13:58 (11:58 UTC)

Prognozė

Ataskaita buvo paskelbta 33 minutes, ne 11:25 UTC
Prognozė galioja nuo 21 metu 12 UTC su 21 metu 21 UTC
Vėjas 10 kt iš Pietryčių
Matomumas 10 km arba daugiau
Mažai debesys ne aukštis 5000 ft
Laikinai
nuo 21 metu 12 UTC su 21 metu 18 UTC
Vėjas 16 kt iš Pietų/Pietryčių

TAF: LOAN 211125Z 2112/2121 14010KT 9999 FEW050 TEMPO 2112/2118 15016KT

Orai ataskaitas ir orų prognozės (METAR, TAF).

turimą stotys yra geltonos ir raudonos taškus žemėlapyje.

Perkelti pele per norėdami pamatyti stoties vardą.

Tada spustelėkite, norėdami matyti oro stebėjimo ir prognozės.

Norėdami pakeisti žemėlapį: spustelėkite ant žalios mygtukų su juodo kryžiaus žemyn,; žalią mygtuką su brūkšneliu, jei norite nutolinti; arba žalių rodyklių gretimoms žemėlapius.


METAR-TAF: